sensor_id;sensor_type;location;lat;lon;timestamp;temperature;humidity
23445;DHT22;11895;48.738;9.320;2023-03-01T13:07:11;22.70;54.20
23445;DHT22;11895;48.738;9.320;2023-03-01T13:15:44;22.00;54.30
23445;DHT22;11895;48.738;9.320;2023-03-01T13:20:57;22.60;53.10
23445;DHT22;11895;48.738;9.320;2023-03-01T13:23:33;22.60;52.00
23445;DHT22;11895;48.738;9.320;2023-03-01T13:26:17;22.90;51.90
23445;DHT22;11895;48.738;9.320;2023-03-01T13:33:51;21.90;51.50
23445;DHT22;11895;48.738;9.320;2023-03-01T13:38:59;21.90;53.20
23445;DHT22;11895;48.738;9.320;2023-03-01T13:46:58;23.50;50.60
23445;DHT22;11895;48.738;9.320;2023-03-01T13:55:26;24.40;49.00
23445;DHT22;11895;48.738;9.320;2023-03-01T13:58:25;24.40;48.20
23445;DHT22;11895;48.738;9.320;2023-03-01T14:03:40;24.60;48.80
23445;DHT22;11895;48.738;9.320;2023-03-01T14:06:13;24.90;48.50
23445;DHT22;11895;48.738;9.320;2023-03-01T14:09:21;25.00;47.00
23445;DHT22;11895;48.738;9.320;2023-03-01T14:18:26;26.20;46.10
23445;DHT22;11895;48.738;9.320;2023-03-01T14:21:13;26.20;45.80
23445;DHT22;11895;48.738;9.320;2023-03-01T14:23:42;25.70;45.00
23445;DHT22;11895;48.738;9.320;2023-03-01T14:26:10;24.20;47.30
23445;DHT22;11895;48.738;9.320;2023-03-01T14:28:39;24.00;48.80
23445;DHT22;11895;48.738;9.320;2023-03-01T14:34:22;24.60;48.20
23445;DHT22;11895;48.738;9.320;2023-03-01T14:36:51;25.20;47.30
23445;DHT22;11895;48.738;9.320;2023-03-01T14:39:23;25.70;46.80
23445;DHT22;11895;48.738;9.320;2023-03-01T14:41:55;26.20;45.60
23445;DHT22;11895;48.738;9.320;2023-03-01T14:44:28;26.20;45.10
23445;DHT22;11895;48.738;9.320;2023-03-01T14:46:56;25.20;45.30
23445;DHT22;11895;48.738;9.320;2023-03-01T14:49:27;22.80;47.50
23445;DHT22;11895;48.738;9.320;2023-03-01T14:52:02;22.30;50.20
23445;DHT22;11895;48.738;9.320;2023-03-01T14:54:44;22.30;49.70
23445;DHT22;11895;48.738;9.320;2023-03-01T14:57:21;21.50;52.30
23445;DHT22;11895;48.738;9.320;2023-03-01T14:59:55;21.40;50.70
23445;DHT22;11895;48.738;9.320;2023-03-01T15:02:28;21.40;50.80
23445;DHT22;11895;48.738;9.320;2023-03-01T15:05:01;21.70;51.00
23445;DHT22;11895;48.738;9.320;2023-03-01T15:07:38;21.80;50.50
23445;DHT22;11895;48.738;9.320;2023-03-01T15:10:37;21.80;50.30
23445;DHT22;11895;48.738;9.320;2023-03-01T15:13:21;21.90;50.50
23445;DHT22;11895;48.738;9.320;2023-03-01T15:15:53;21.90;51.30
23445;DHT22;11895;48.738;9.320;2023-03-01T15:18:30;21.80;50.50
23445;DHT22;11895;48.738;9.320;2023-03-01T15:26:52;20.40;52.00
23445;DHT22;11895;48.738;9.320;2023-03-01T15:29:29;20.30;52.60
23445;DHT22;11895;48.738;9.320;2023-03-01T15:32:05;20.50;52.90
23445;DHT22;11895;48.738;9.320;2023-03-01T15:34:52;20.00;52.30
23445;DHT22;11895;48.738;9.320;2023-03-01T15:40:32;18.90;54.40
23445;DHT22;11895;48.738;9.320;2023-03-01T15:43:01;18.90;54.40
23445;DHT22;11895;48.738;9.320;2023-03-01T15:45:32;19.10;53.90
23445;DHT22;11895;48.738;9.320;2023-03-01T15:48:18;19.30;54.00
23445;DHT22;11895;48.738;9.320;2023-03-01T15:50:55;19.30;54.30
23445;DHT22;11895;48.738;9.320;2023-03-01T15:53:26;19.30;53.80
23445;DHT22;11895;48.738;9.320;2023-03-01T15:55:55;19.20;54.10
23445;DHT22;11895;48.738;9.320;2023-03-01T15:58:24;19.00;53.80
23445;DHT22;11895;48.738;9.320;2023-03-01T16:00:52;19.00;54.50
23445;DHT22;11895;48.738;9.320;2023-03-01T16:03:28;18.90;54.70
23445;DHT22;11895;48.738;9.320;2023-03-01T16:05:56;18.70;54.60
23445;DHT22;11895;48.738;9.320;2023-03-01T16:08:23;18.60;54.80
23445;DHT22;11895;48.738;9.320;2023-03-01T16:10:51;18.60;55.40
23445;DHT22;11895;48.738;9.320;2023-03-01T16:13:20;18.40;55.20
23445;DHT22;11895;48.738;9.320;2023-03-01T16:15:47;18.10;55.60
23445;DHT22;11895;48.738;9.320;2023-03-01T16:18:15;17.70;56.70
23445;DHT22;11895;48.738;9.320;2023-03-01T16:20:42;17.20;57.20
23445;DHT22;11895;48.738;9.320;2023-03-01T16:23:11;16.90;57.70
23445;DHT22;11895;48.738;9.320;2023-03-01T16:25:38;16.50;58.00
23445;DHT22;11895;48.738;9.320;2023-03-01T16:28:06;16.20;58.50
23445;DHT22;11895;48.738;9.320;2023-03-01T16:30:38;15.90;59.00
23445;DHT22;11895;48.738;9.320;2023-03-01T16:33:07;15.60;60.10
23445;DHT22;11895;48.738;9.320;2023-03-01T16:35:53;15.30;60.40
23445;DHT22;11895;48.738;9.320;2023-03-01T16:38:21;15.00;61.40
23445;DHT22;11895;48.738;9.320;2023-03-01T16:40:50;14.60;61.90
23445;DHT22;11895;48.738;9.320;2023-03-01T16:43:18;14.20;63.50
23445;DHT22;11895;48.738;9.320;2023-03-01T16:45:46;13.70;63.80
23445;DHT22;11895;48.738;9.320;2023-03-01T16:48:14;13.40;64.20
23445;DHT22;11895;48.738;9.320;2023-03-01T16:50:41;12.80;65.70
23445;DHT22;11895;48.738;9.320;2023-03-01T16:53:09;12.30;66.80
23445;DHT22;11895;48.738;9.320;2023-03-01T16:55:36;11.90;68.20
23445;DHT22;11895;48.738;9.320;2023-03-01T16:58:04;11.60;68.80
23445;DHT22;11895;48.738;9.320;2023-03-01T17:00:32;11.20;69.80
23445;DHT22;11895;48.738;9.320;2023-03-01T17:02:59;10.80;70.70
23445;DHT22;11895;48.738;9.320;2023-03-01T17:05:27;10.60;72.30
23445;DHT22;11895;48.738;9.320;2023-03-01T17:07:54;10.40;72.70
23445;DHT22;11895;48.738;9.320;2023-03-01T17:10:23;10.20;72.60
23445;DHT22;11895;48.738;9.320;2023-03-01T17:12:50;9.90;73.70
23445;DHT22;11895;48.738;9.320;2023-03-01T17:15:18;9.70;74.20
23445;DHT22;11895;48.738;9.320;2023-03-01T17:17:45;9.60;75.80
23445;DHT22;11895;48.738;9.320;2023-03-01T17:20:17;9.30;75.60
23445;DHT22;11895;48.738;9.320;2023-03-01T17:22:45;9.10;76.40
23445;DHT22;11895;48.738;9.320;2023-03-01T17:25:12;9.00;77.10
23445;DHT22;11895;48.738;9.320;2023-03-01T17:27:40;8.80;77.80
23445;DHT22;11895;48.738;9.320;2023-03-01T17:30:09;8.70;78.60
23445;DHT22;11895;48.738;9.320;2023-03-01T17:32:39;8.50;78.50
23445;DHT22;11895;48.738;9.320;2023-03-01T17:35:08;8.40;79.10
